ADDS METAR Data INFO
IDs: Format: Raw Decoded Include TAF

Data at: 0248 UTC 21 Jan 2018

KAFK 210235Z AUTO 00000KT 5SM BR OVC027 05/05 A2986 RMK AO2 T00510051
KAFK 210215Z AUTO 00000KT 5SM BR OVC027 06/06 A2986 RMK AO2 T00570057
KAFK 210155Z AUTO 00000KT 7SM OVC027 06/06 A2985 RMK AO2 T00570057
KAFK 210135Z AUTO 00000KT 7SM OVC027 06/06 A2985 RMK AO2 T00570057
KAFK 210115Z AUTO 00000KT 7SM OVC027 06/06 A2985 RMK AO2 T00550055
KAFK 210055Z AUTO 00000KT 7SM OVC025 05/05 A2985 RMK AO2 T00520052
KAFK 210035Z AUTO 05003KT 7SM SCT019 OVC025 05/05 A2985 RMK AO2 T00530053
KAFK 210015Z AUTO 00000KT 7SM OVC025 06/06 A2985 RMK AO2 T00550055
KAFK 202355Z AUTO 06003KT 10SM OVC025 06/06 A2985 RMK AO2 T00580057 10074 20045
KAFK 202335Z AUTO 05003KT 10SM OVC025 06/06 A2984 RMK AO2 T00610058
KAFK 202315Z AUTO 06003KT 7SM OVC025 06/06 A2984 RMK AO2 T00620058
KAFK 202255Z AUTO 06004KT 10SM SCT017 OVC025 07/06 A2983 RMK AO2 T00650060
KAFK 202235Z AUTO 05004KT 10SM BKN017 OVC025 07/06 A2983 RMK AO2 T00650058
KAFK 202215Z AUTO 06005KT 10SM OVC025 07/06 A2982 RMK AO2 T00680059
KAFK 202155Z AUTO 05004KT 10SM OVC027 07/06 A2982 RMK AO2 T00690057
KAFK 202135Z AUTO 06003KT 10SM OVC027 07/06 A2982 RMK AO2 T00700057
KAFK 202115Z AUTO 06004KT 10SM OVC027 07/06 A2982 RMK AO2 T00710056
KAFK 202055Z AUTO 07004KT 10SM OVC027 07/06 A2982 RMK AO2 T00710055
KAFK 202035Z AUTO 07004KT 10SM OVC025 07/06 A2982 RMK AO2 T00740057
KAFK 202015Z AUTO 11004KT 10SM OVC023 07/06 A2982 RMK AO2 T00710055
KAFK 201955Z AUTO 00000KT 10SM OVC023 07/05 A2983 RMK AO2 T00650047
KAFK 201935Z AUTO 00000KT 10SM OVC023 06/04 A2983 RMK AO2 T00590043
KAFK 201915Z AUTO 00000KT 10SM OVC021 06/04 A2983 RMK AO2 T00560041
KAFK 201855Z AUTO 05003KT 10SM OVC021 06/04 A2984 RMK AO2 T00560038
KAFK 201835Z AUTO 08003KT 10SM OVC019 05/03 A2984 RMK AO2 T00530033
KAFK 201815Z AUTO 00000KT 10SM OVC019 05/04 A2985 RMK AO2 T00500035
KAFK 201755Z AUTO 00000KT 10SM OVC017 05/03 A2986 RMK AO2 T00450031 10046 21023
KAFK 201735Z AUTO 00000KT 10SM OVC017 04/03 A2987 RMK AO2 T00440031
KAFK 201715Z AUTO 00000KT 10SM OVC015 03/02 A2987 RMK AO2 T00340022
KAFK 201655Z AUTO 00000KT 10SM OVC013 03/02 A2988 RMK AO2 T00270017
KAFK 201635Z AUTO 00000KT 10SM OVC011 02/01 A2987 RMK AO2 T00200010
KAFK 201615Z AUTO 00000KT 10SM OVC009 02/01 A2988 RMK AO2 T00170009
KAFK 201555Z AUTO 00000KT 10SM OVC007 02/01 A2987 RMK AO2 T00190012
KAFK 201535Z AUTO 00000KT 10SM OVC005 01/00 A2986 RMK AO2 T00080001
KAFK 201515Z AUTO 00000KT 10SM OVC009 00/00 A2986 RMK AO2 T00001003
KAFK 201455Z AUTO 00000KT 10SM BKN009 00/M01 A2985 RMK AO2 T10031009
KAFK 201435Z AUTO 00000KT 10SM CLR M01/M01 A2984 RMK AO2 T10061014
KAFK 201415Z AUTO 20003KT 10SM CLR M01/M02 A2984 RMK AO2 T10151022
KAFK 201355Z AUTO 20006KT 10SM CLR M02/M03 A2983 RMK AO2 T10201027
KAFK 201335Z AUTO 19006KT 10SM CLR M02/M03 A2982 RMK AO2 T10211028
KAFK 201315Z AUTO 19005KT 10SM CLR M02/M03 A2982 RMK AO2 T10211027
KAFK 201255Z AUTO 19006KT 10SM CLR M02/M03 A2982 RMK AO2 T10161027
KAFK 201235Z AUTO 19005KT 10SM CLR M02/M03 A2982 RMK AO2 T10171028
KAFK 201215Z AUTO 19004KT 10SM CLR M02/M03 A2981 RMK AO2 T10201030
KAFK 201155Z AUTO 19006KT 10SM CLR M02/M03 A2981 RMK AO2 T10211031 10010 21024
KAFK 201135Z AUTO 19007KT 10SM CLR M01/M03 A2980 RMK AO2 T10121026
KAFK 201115Z AUTO 19007KT 10SM CLR M01/M03 A2981 RMK AO2 T10151026
KAFK 201055Z AUTO 18007KT 10SM CLR M02/M03 A2981 RMK AO2 T10221032
KAFK 201035Z AUTO 18004KT 10SM CLR 00/M02 A2981 RMK AO2 T00001019
KAFK 201015Z AUTO 00000KT 10SM CLR 01/M02 A2981 RMK AO2 T00061017
KAFK 200955Z AUTO 00000KT 10SM CLR 01/M02 A2980 RMK AO2 T00051018
KAFK 200935Z AUTO 00000KT 10SM CLR 00/M02 A2980 RMK AO2 T10011019
KAFK 200915Z AUTO 00000KT 10SM CLR 00/M02 A2980 RMK AO2 T00001019
KAFK 200855Z AUTO 00000KT 10SM CLR 00/M02 A2980 RMK AO2 T00001022
KAFK 200835Z AUTO 00000KT 10SM CLR 00/M02 A2979 RMK AO2 T00021017
KAFK 200815Z AUTO 00000KT 10SM CLR 00/M02 A2979 RMK AO2 T10011020
KAFK 200755Z AUTO 21007KT 10SM CLR 01/M02 A2978 RMK AO2 T00081016
KAFK 200735Z AUTO 21009KT 10SM CLR 01/M01 A2978 RMK AO2 T00101015
KAFK 200715Z AUTO 21009KT 10SM CLR 01/M01 A2978 RMK AO2 T00061015
KAFK 200655Z AUTO 20008KT 10SM CLR 00/M02 A2978 RMK AO2 T00001016
KAFK 200635Z AUTO 20007KT 10SM CLR 00/M02 A2978 RMK AO2 T10031017
KAFK 200615Z AUTO 20007KT 10SM CLR 00/M02 A2978 RMK AO2 T00001019
KAFK 200555Z AUTO 20006KT 10SM CLR 01/M01 A2978 RMK AO2 T00101015 10036 20000 400720000
KAFK 200535Z AUTO 20007KT 10SM CLR 01/M01 A2978 RMK AO2 T00091014
KAFK 200515Z AUTO 20008KT 10SM CLR 00/M01 A2978 RMK AO2 T00041013
KAFK 200455Z AUTO 20008KT 10SM CLR 01/M01 A2977 RMK AO2 T00121009
KAFK 200435Z AUTO 20008KT 10SM CLR 02/M01 A2977 RMK AO2 T00161010
KAFK 200415Z AUTO 21007KT 10SM CLR 02/M01 A2977 RMK AO2 T00181010
KAFK 200355Z AUTO 21006KT 10SM CLR 03/M01 A2977 RMK AO2 T00251010
KAFK 200335Z AUTO 20008KT 10SM CLR 01/M01 A2977 RMK AO2 T00081007
KAFK 200315Z AUTO 19008KT 10SM CLR 01/M01 A2976 RMK AO2 T00111009
KAFK 200255Z AUTO 20006KT 10SM CLR 01/M01 A2977 RMK AO2 T00141006
KAFK 200235Z AUTO 20005KT 10SM CLR 01/M01 A2976 RMK AO2 T00131010
KAFK 200220Z AUTO 20003KT 10SM CLR 02/M01 A2976 RMK AO2 T00171008
KAFK 200155Z AUTO 21005KT 10SM CLR 01/M01 A2975 RMK AO2 T00061006
KAFK 200135Z AUTO 19003KT 10SM CLR 02/00 A2975 RMK AO2 T00191004
KAFK 200115Z AUTO 00000KT 10SM CLR 02/00 A2975 RMK AO2 T00171002
KAFK 200055Z AUTO 32003KT 10SM CLR 03/00 A2975 RMK AO2 T00251002
KAFK 200035Z AUTO 19006KT 10SM CLR 03/00 A2971 RMK AO2 T00331001
KAFK 200015Z AUTO 20008KT 10SM CLR 03/00 A2971 RMK AO2 T00300000
KAFK 192355Z AUTO 20007KT 10SM CLR 03/00 A2971 RMK AO2 T00300000 10072 20029
KAFK 192335Z AUTO 22004KT 10SM CLR 04/00 A2972 RMK AO2 T00360000
KAFK 192315Z AUTO 00000KT 10SM CLR 05/00 A2972 RMK AO2 T00450000
KAFK 192255Z AUTO 21006KT 10SM CLR 05/00 A2971 RMK AO2 T00510002
KAFK 192235Z AUTO 20007KT 10SM CLR 06/01 A2970 RMK AO2 T00570005
KAFK 192215Z AUTO 20008KT 10SM CLR 06/00 A2969 RMK AO2 T00610002
KAFK 192155Z AUTO 20010KT 10SM CLR 07/00 A2969 RMK AO2 T00660001
KAFK 192135Z AUTO 20010KT 10SM CLR 07/00 A2969 RMK AO2 T00700001
KAFK 192115Z AUTO 21012KT 10SM CLR 07/00 A2969 RMK AO2 T00710000
KAFK 192055Z AUTO 21015KT 10SM CLR 07/00 A2969 RMK AO2 T00661001
KAFK 192035Z AUTO 21015KT 10SM CLR 07/00 A2968 RMK AO2 T00651003
KAFK 192015Z AUTO 21011KT 10SM CLR 07/00 A2969 RMK AO2 T00661005
KAFK 191955Z AUTO 21011G17KT 10SM CLR 07/00 A2970 RMK AO2 T00661005
KAFK 191935Z AUTO 20014KT 10SM CLR 06/M01 A2970 RMK AO2 T00621007
KAFK 191915Z AUTO 21013KT 10SM CLR 06/M01 A2971 RMK AO2 T00611010
KAFK 191855Z AUTO 21016KT 10SM CLR 06/M01 A2971 RMK AO2 T00581014
KAFK 191835Z AUTO 21015KT 10SM CLR 06/M01 A2972 RMK AO2 T00581014
KAFK 191815Z AUTO 21013KT 10SM CLR 06/M02 A2974 RMK AO2 T00551016
KAFK 191755Z AUTO 21014KT 10SM CLR 05/M02 A2975 RMK AO2 T00501016 10050 20007
KAFK 191735Z AUTO 21014KT 10SM CLR 05/M02 A2976 RMK AO2 T00461016
KAFK 191715Z AUTO 21016G21KT 10SM CLR 04/M02 A2977 RMK AO2 T00441022
KAFK 191655Z AUTO 21015G19KT 10SM CLR 04/M02 A2978 RMK AO2 T00411021
KAFK 191635Z AUTO 22015KT 10SM CLR 04/M03 A2979 RMK AO2 T00391026
KAFK 191615Z AUTO 21015KT 10SM CLR 03/M02 A2979 RMK AO2 T00341025
KAFK 191555Z AUTO 21014KT 10SM CLR 03/M03 A2979 RMK AO2 T00271027
KAFK 191535Z AUTO 21015KT 10SM CLR 02/M03 A2979 RMK AO2 T00211030
KAFK 191515Z AUTO 21016KT 10SM CLR 02/M03 A2979 RMK AO2 T00201032
KAFK 191455Z AUTO 21016KT 10SM CLR 02/M03 A2979 RMK AO2 T00161035